Time;durP1;ratioP1;P1;durP2;ratioP2;P2;SDS_P1;SDS_P2;PMS_P1;PMS_P2;Temp;Humidity;BMP_temperature;BMP_pressure;BME280_temperature;BME280_humidity;BME280_pressure;Samples;Min_cycle;Max_cycle;Signal;HPM_P1;HPM_P2
2022/11/23 00:00:56;;;;;;;99.57;31.07;;;;;;;0.23;100.00;99155.66;4212592;28;20240;-70
2022/11/23 00:03:22;;;;;;;114.50;32.63;;;;;;;0.29;100.00;99157.03;4209681;28;21280;-69
2022/11/23 00:05:49;;;;;;;110.67;32.27;;;;;;;0.18;100.00;99153.38;4212434;28;20310;-70
2022/11/23 00:08:16;;;;;;;119.10;32.63;;;;;;;0.19;100.00;99149.00;4223365;28;20232;-68
2022/11/23 00:10:42;;;;;;;99.37;30.23;;;;;;;0.34;100.00;99142.66;4214505;28;20318;-69
2022/11/23 00:13:09;;;;;;;111.03;32.33;;;;;;;0.41;100.00;99143.03;4213584;28;20237;-71
2022/11/23 00:15:35;;;;;;;99.10;30.80;;;;;;;0.32;100.00;99148.94;4216664;28;26095;-71
2022/11/23 00:18:02;;;;;;;109.67;32.27;;;;;;;0.20;100.00;99148.88;4208350;28;20243;-69
2022/11/23 00:20:29;;;;;;;99.63;30.10;;;;;;;0.14;100.00;99135.41;4209366;28;20246;-70
2022/11/23 00:22:55;;;;;;;97.93;30.47;;;;;;;0.13;100.00;99141.59;4210222;28;23577;-68
2022/11/23 00:25:22;;;;;;;109.43;31.33;;;;;;;0.15;100.00;99135.31;4208438;28;20648;-69
2022/11/23 00:27:48;;;;;;;107.93;30.07;;;;;;;0.16;100.00;99131.75;4206543;28;20232;-70
2022/11/23 00:30:15;;;;;;;106.50;30.93;;;;;;;0.26;100.00;99133.69;4208226;28;21639;-70
2022/11/23 00:32:41;;;;;;;100.93;31.03;;;;;;;0.28;100.00;99126.56;4208536;28;21773;-70
2022/11/23 00:35:08;;;;;;;96.23;28.47;;;;;;;0.31;100.00;99135.03;4186845;28;21863;-69
2022/11/23 00:37:34;;;;;;;98.37;29.67;;;;;;;0.32;100.00;99136.69;4203134;28;20236;-69
2022/11/23 00:40:01;;;;;;;104.17;31.53;;;;;;;0.22;100.00;99138.31;4207355;28;22134;-71
2022/11/23 00:42:27;;;;;;;107.63;30.00;;;;;;;0.11;100.00;99130.41;4209428;28;20338;-70
2022/11/23 00:44:59;;;;;;;110.20;30.17;;;;;;;0.16;100.00;99133.50;4206755;28;21686;-70
2022/11/23 00:47:25;;;;;;;98.43;30.30;;;;;;;0.10;100.00;99137.41;4209483;28;20220;-70
2022/11/23 00:49:52;;;;;;;111.43;30.53;;;;;;;0.06;100.00;99127.28;4204223;28;20521;-69
2022/11/23 00:52:18;;;;;;;102.17;29.23;;;;;;;0.07;100.00;99135.03;4208214;28;22036;-70
2022/11/23 00:54:45;;;;;;;98.70;29.27;;;;;;;0.13;100.00;99136.38;4202599;28;20238;-69
2022/11/23 00:57:11;;;;;;;108.13;29.90;;;;;;;0.10;100.00;99131.38;4206502;28;20406;-70
2022/11/23 00:59:38;;;;;;;99.20;28.53;;;;;;;0.12;100.00;99126.84;4197431;28;20237;-70
2022/11/23 01:02:04;;;;;;;104.43;29.67;;;;;;;0.15;100.00;99130.06;4201476;28;23593;-68
2022/11/23 01:04:31;;;;;;;107.87;30.43;;;;;;;0.14;100.00;99132.78;4208284;28;21267;-69
2022/11/23 01:06:57;;;;;;;112.53;31.43;;;;;;;0.11;100.00;99135.63;4199341;28;20300;-70
2022/11/23 01:09:25;;;;;;;102.90;30.20;;;;;;;0.13;100.00;99134.56;4210745;28;20240;-69
2022/11/23 01:11:52;;;;;;;102.90;28.03;;;;;;;0.31;100.00;99142.06;4210414;28;20232;-69
2022/11/23 01:14:20;;;;;;;101.73;28.63;;;;;;;0.16;100.00;99133.50;4209444;28;20234;-69
2022/11/23 01:16:47;;;;;;;113.70;31.80;;;;;;;0.12;100.00;99132.09;4201358;28;24585;-69
2022/11/23 01:19:17;;;;;;;107.47;30.13;;;;;;;0.06;100.00;99130.72;4209170;28;20239;-71
2022/11/23 01:21:43;;;;;;;104.80;30.13;;;;;;;0.06;100.00;99135.13;4201813;28;20224;-68
2022/11/23 01:24:19;;;;;;;110.93;31.63;;;;;;;0.05;100.00;99128.22;4206410;28;20422;-70
2022/11/23 01:26:52;;;;;;;98.37;27.63;;;;;;;0.05;100.00;99128.22;4201341;28;23180;-70
2022/11/23 01:29:20;;;;;;;109.23;30.27;;;;;;;0.04;100.00;99135.25;4207258;28;20241;-69
2022/11/23 01:31:46;;;;;;;109.10;30.77;;;;;;;0.01;100.00;99134.63;4208550;28;20268;-70
2022/11/23 01:34:13;;;;;;;92.13;27.67;;;;;;;-0.04;100.00;99127.94;4205237;28;20384;-70
2022/11/23 01:36:41;;;;;;;97.80;28.37;;;;;;;0.00;100.00;99125.97;4206733;28;20316;-70
2022/11/23 01:39:09;;;;;;;111.13;31.10;;;;;;;-0.01;100.00;99130.34;4202163;28;20324;-71
2022/11/23 01:41:38;;;;;;;103.77;29.30;;;;;;;-0.01;100.00;99125.09;4200602;28;22865;-69
2022/11/23 01:44:27;;;;;;;99.13;27.80;;;;;;;0.01;100.00;99134.63;4199099;28;20675;-70
2022/11/23 01:46:56;;;;;;;110.40;30.03;;;;;;;-0.03;100.00;99121.75;4203091;28;20405;-70
2022/11/23 01:49:23;;;;;;;101.77;28.77;;;;;;;-0.06;100.00;99127.22;4206829;28;20483;-70
2022/11/23 01:51:52;;;;;;;107.77;28.90;;;;;;;-0.08;100.00;99130.91;4203956;28;22942;-70
2022/11/23 01:54:27;;;;;;;97.23;27.87;;;;;;;-0.11;100.00;99131.94;4209759;28;20287;-68
2022/11/23 01:57:05;;;;;;;105.17;28.10;;;;;;;-0.17;100.00;99121.91;4210479;28;20422;-69
2022/11/23 01:59:32;;;;;;;96.83;28.60;;;;;;;-0.13;100.00;99122.56;4202558;28;20248;-70
2022/11/23 02:02:00;;;;;;;98.97;27.77;;;;;;;-0.08;100.00;99115.19;4203606;28;20745;-68
2022/11/23 02:04:31;;;;;;;101.73;28.80;;;;;;;-0.06;100.00;99124.59;4209794;28;20248;-69
2022/11/23 02:07:00;;;;;;;101.33;28.87;;;;;;;-0.04;100.00;99114.03;4219054;28;20666;-68
2022/11/23 02:09:28;;;;;;;102.63;28.27;;;;;;;-0.03;100.00;99116.53;4215780;28;20685;-70
2022/11/23 02:11:55;;;;;;;97.33;27.97;;;;;;;-0.07;100.00;99119.47;4227345;28;22940;-70
2022/11/23 02:14:21;;;;;;;101.13;28.47;;;;;;;-0.08;100.00;99116.03;4324787;28;20241;-69
2022/11/23 02:16:49;;;;;;;95.23;28.50;;;;;;;-0.07;100.00;99122.09;4195468;28;22000;-68
2022/11/23 02:19:23;;;;;;;107.57;28.33;;;;;;;-0.03;100.00;99124.38;4201231;28;21711;-70
2022/11/23 02:21:51;;;;;;;102.63;29.90;;;;;;;-0.07;100.00;99122.94;4205076;28;25943;-70
2022/11/23 02:24:29;;;;;;;97.40;26.83;;;;;;;-0.11;100.00;99131.13;4201731;28;20305;-69
2022/11/23 02:26:56;;;;;;;104.00;29.33;;;;;;;-0.15;100.00;99135.72;4210438;28;22382;-69
2022/11/23 02:29:24;;;;;;;103.50;31.50;;;;;;;-0.15;100.00;99148.78;4205577;28;20269;-69
2022/11/23 02:31:52;;;;;;;108.33;29.53;;;;;;;-0.04;100.00;99153.28;4205392;28;21675;-70
2022/11/23 02:34:19;;;;;;;100.70;29.83;;;;;;;-0.07;100.00;99158.69;4207893;28;22038;-69
2022/11/23 02:36:49;;;;;;;97.30;28.53;;;;;;;-0.05;100.00;99160.28;4198823;28;20298;-69
2022/11/23 02:39:21;;;;;;;103.27;29.13;;;;;;;-0.15;100.00;99161.88;4189343;28;20300;-68
2022/11/23 02:41:50;;;;;;;96.37;28.23;;;;;;;-0.14;100.00;99162.69;4216579;28;20328;-69
2022/11/23 02:44:30;;;;;;;87.17;27.50;;;;;;;-0.05;100.00;99162.03;4207986;28;21634;-70
2022/11/23 02:46:57;;;;;;;104.03;29.03;;;;;;;-0.24;100.00;99165.13;4203128;28;20314;-71
2022/11/23 02:49:24;;;;;;;89.40;27.40;;;;;;;-0.20;100.00;99173.59;4190500;28;20241;-69
2022/11/23 02:51:51;;;;;;;102.47;27.83;;;;;;;-0.19;100.00;99173.47;4209740;28;21983;-69
2022/11/23 02:54:17;;;;;;;94.93;27.40;;;;;;;-0.17;100.00;99168.97;4210914;28;20224;-67
2022/11/23 02:56:44;;;;;;;96.07;28.20;;;;;;;-0.18;100.00;99167.31;4262602;28;20351;-68
2022/11/23 02:59:10;;;;;;;99.73;27.50;;;;;;;-0.16;100.00;99162.00;4203373;28;22267;-69
2022/11/23 03:01:39;;;;;;;90.17;26.50;;;;;;;-0.23;100.00;99170.25;4208194;28;20228;-69
2022/11/23 03:04:06;;;;;;;87.30;25.90;;;;;;;-0.29;100.00;99164.63;4214742;28;23036;-69
2022/11/23 03:06:32;;;;;;;100.27;28.97;;;;;;;-0.19;100.00;99165.63;4207070;28;20300;-68
2022/11/23 03:09:00;;;;;;;99.93;27.53;;;;;;;-0.19;100.00;99170.84;4204952;28;20224;-71
2022/11/23 03:11:26;;;;;;;92.07;27.43;;;;;;;-0.17;100.00;99168.97;4202601;28;20239;-68
2022/11/23 03:13:53;;;;;;;103.03;26.70;;;;;;;-0.27;100.00;99175.81;4209167;28;20479;-69
2022/11/23 03:16:20;;;;;;;103.70;28.40;;;;;;;-0.30;100.00;99168.19;4208693;28;20900;-70
2022/11/23 03:18:46;;;;;;;93.33;26.13;;;;;;;-0.26;100.00;99172.22;4209253;28;21222;-69
2022/11/23 03:21:13;;;;;;;97.60;26.70;;;;;;;-0.29;100.00;99165.44;4201430;28;21639;-69
2022/11/23 03:23:40;;;;;;;88.87;25.63;;;;;;;-0.26;100.00;99170.47;4199964;28;20366;-68
2022/11/23 03:26:07;;;;;;;107.30;27.57;;;;;;;-0.27;100.00;99175.81;4198574;28;20235;-67
2022/11/23 03:28:38;;;;;;;103.47;28.93;;;;;;;-0.27;100.00;99178.41;4186678;28;20243;-68
2022/11/23 03:31:05;;;;;;;106.43;29.13;;;;;;;-0.08;100.00;99178.78;4192604;28;20591;-72
2022/11/23 03:33:31;;;;;;;94.77;27.47;;;;;;;-0.07;100.00;99175.25;4201292;28;20233;-67
2022/11/23 03:35:58;;;;;;;92.83;27.80;;;;;;;-0.07;100.00;99177.00;4206052;28;20228;-68
2022/11/23 03:38:25;;;;;;;104.73;27.33;;;;;;;-0.08;100.00;99168.31;4196760;28;20688;-67
2022/11/23 03:40:52;;;;;;;103.60;29.57;;;;;;;-0.06;100.00;99170.84;4197443;28;21354;-67
2022/11/23 03:43:19;;;;;;;90.70;27.37;;;;;;;-0.01;100.00;99159.09;4195119;28;20338;-69
2022/11/23 03:45:45;;;;;;;107.37;29.57;;;;;;;-0.05;100.00;99167.28;4200320;28;22233;-69
2022/11/23 03:48:13;;;;;;;100.53;27.80;;;;;;;0.03;100.00;99169.38;4219637;28;20375;-68
2022/11/23 03:50:40;;;;;;;103.93;27.73;;;;;;;0.06;100.00;99169.13;4194218;28;22160;-67
2022/11/23 03:53:07;;;;;;;88.10;26.97;;;;;;;-0.01;100.00;99169.56;4204748;28;24028;-70
2022/11/23 03:55:33;;;;;;;97.50;28.37;;;;;;;-0.14;100.00;99163.56;4202245;28;20313;-68
2022/11/23 03:58:00;;;;;;;87.97;27.87;;;;;;;0.04;100.00;99163.19;4198289;28;20316;-67
2022/11/23 04:00:28;;;;;;;100.97;28.60;;;;;;;0.06;100.00;99169.13;4200849;28;20290;-70
2022/11/23 04:02:55;;;;;;;102.47;27.93;;;;;;;0.08;100.00;99173.31;4195339;28;20240;-69
2022/11/23 04:05:22;;;;;;;79.93;24.80;;;;;;;0.14;100.00;99178.13;4207868;28;20240;-68
2022/11/23 04:07:49;;;;;;;86.93;25.03;;;;;;;-0.14;100.00;99167.91;4203726;28;20256;-67
2022/11/23 04:10:17;;;;;;;89.17;24.97;;;;;;;-0.19;100.00;99176.09;4199732;28;21329;-68
2022/11/23 04:12:43;;;;;;;88.70;25.13;;;;;;;-0.27;100.00;99173.19;4207078;28;20229;-72
2022/11/23 04:15:10;;;;;;;82.50;25.17;;;;;;;-0.19;100.00;99173.47;4201194;28;20235;-69
2022/11/23 04:17:37;;;;;;;86.40;26.00;;;;;;;-0.19;100.00;99181.31;4209811;28;21270;-68
2022/11/23 04:20:04;;;;;;;84.60;24.23;;;;;;;-0.30;100.00;99170.81;4202742;28;21806;-68
2022/11/23 04:22:31;;;;;;;96.03;26.03;;;;;;;-0.35;100.00;99170.25;4206195;28;20240;-68
2022/11/23 04:24:57;;;;;;;93.60;25.70;;;;;;;-0.33;100.00;99174.47;4209815;28;20296;-67
2022/11/23 04:27:24;;;;;;;98.20;27.40;;;;;;;-0.34;100.00;99161.50;4201904;28;20271;-68
2022/11/23 04:29:50;;;;;;;86.40;25.33;;;;;;;-0.37;100.00;99165.16;4204371;28;23412;-68
2022/11/23 04:32:17;;;;;;;99.80;28.30;;;;;;;-0.39;100.00;99171.44;4204826;28;20252;-68
2022/11/23 04:34:43;;;;;;;98.43;27.83;;;;;;;-0.38;100.00;99170.47;4217956;28;20603;-69
2022/11/23 04:37:10;;;;;;;95.47;27.57;;;;;;;-0.38;100.00;99170.47;4195515;28;20220;-69
2022/11/23 04:39:39;;;;;;;99.20;26.53;;;;;;;-0.41;100.00;99166.31;4216698;28;20233;-73
2022/11/23 04:42:05;;;;;;;92.40;26.63;;;;;;;-0.44;100.00;99167.34;4201302;28;20228;-68
2022/11/23 04:44:32;;;;;;;87.07;23.93;;;;;;;-0.53;100.00;99178.44;4205297;28;20476;-68
2022/11/23 04:46:59;;;;;;;88.17;24.90;;;;;;;-0.53;100.00;99172.41;4200576;28;20229;-69
2022/11/23 04:49:26;;;;;;;80.73;24.60;;;;;;;-0.51;100.00;99176.56;4201222;28;20229;-69
2022/11/23 04:51:52;;;;;;;94.30;25.27;;;;;;;-0.47;100.00;99167.59;4200095;28;20371;-69
2022/11/23 04:54:19;;;;;;;85.10;23.03;;;;;;;-0.39;100.00;99168.81;4199971;28;20224;-66
2022/11/23 04:56:45;;;;;;;83.13;23.80;;;;;;;-0.47;100.00;99166.72;4213826;28;20233;-69
2022/11/23 04:59:12;;;;;;;80.03;23.80;;;;;;;-0.52;100.00;99160.97;4209474;28;20803;-68
2022/11/23 05:01:39;;;;;;;86.67;24.87;;;;;;;-0.48;100.00;99159.84;4205196;28;20232;-70
2022/11/23 05:04:05;;;;;;;86.23;24.60;;;;;;;-0.48;100.00;99162.44;4200357;28;22255;-69
2022/11/23 05:06:32;;;;;;;83.37;23.60;;;;;;;-0.51;100.00;99166.13;4201696;28;21658;-67
2022/11/23 05:08:58;;;;;;;75.77;22.43;;;;;;;-0.54;100.00;99161.13;4206872;28;21672;-67
2022/11/23 05:11:26;;;;;;;76.63;23.63;;;;;;;-0.53;100.00;99167.16;4203760;28;20239;-67
2022/11/23 05:13:52;;;;;;;79.80;23.83;;;;;;;-0.59;100.00;99159.75;4203451;28;20240;-68
2022/11/23 05:16:19;;;;;;;72.57;21.37;;;;;;;-0.59;100.00;99159.75;4201901;28;20666;-70
2022/11/23 05:18:45;;;;;;;74.47;23.60;;;;;;;-0.68;100.00;99159.44;4198306;28;25003;-67
2022/11/23 05:21:12;;;;;;;71.30;21.10;;;;;;;-0.61;100.00;99154.63;4197573;28;23053;-71
2022/11/23 05:23:38;;;;;;;76.40;22.13;;;;;;;-0.65;100.00;99154.00;4207692;28;20228;-72
2022/11/23 05:26:05;;;;;;;70.20;21.40;;;;;;;-0.54;100.00;99155.03;4200072;28;20290;-67
2022/11/23 05:28:31;;;;;;;69.40;21.97;;;;;;;-0.52;100.00;99164.44;4208171;28;22629;-70
2022/11/23 05:31:07;;;;;;;65.93;20.40;;;;;;;-0.55;100.00;99164.66;4202665;28;20518;-68
2022/11/23 05:33:34;;;;;;;69.73;21.00;;;;;;;-0.54;100.00;99168.94;4203205;28;20834;-70
2022/11/23 05:36:01;;;;;;;65.47;20.67;;;;;;;-0.52;100.00;99163.59;4204293;28;23970;-67
2022/11/23 05:38:27;;;;;;;77.50;22.87;;;;;;;-0.58;100.00;99169.25;4200192;28;20347;-69
2022/11/23 05:40:54;;;;;;;63.60;20.77;;;;;;;-0.58;100.00;99175.31;4204203;28;20241;-69
2022/11/23 05:43:20;;;;;;;66.00;21.77;;;;;;;-0.62;100.00;99171.25;4203591;28;21111;-69
2022/11/23 05:45:47;;;;;;;69.13;22.40;;;;;;;-0.62;100.00;99171.25;4201949;28;20827;-69
2022/11/23 05:48:13;;;;;;;73.70;23.07;;;;;;;-0.68;100.00;99169.91;4202998;28;20229;-69
2022/11/23 05:50:40;;;;;;;70.67;20.17;;;;;;;-0.62;100.00;99173.84;4200683;28;20236;-70
2022/11/23 05:53:07;;;;;;;63.43;21.73;;;;;;;-0.65;100.00;99180.13;4210940;28;20237;-72
2022/11/23 05:55:34;;;;;;;73.40;22.07;;;;;;;-0.62;100.00;99178.25;4211925;28;20462;-69
2022/11/23 05:58:00;;;;;;;71.97;23.63;;;;;;;-0.59;100.00;99176.25;4204866;28;20233;-70
2022/11/23 06:00:27;;;;;;;75.67;25.03;;;;;;;-0.57;100.00;99184.81;4201644;28;20242;-68
2022/11/23 06:02:58;;;;;;;87.57;22.60;;;;;;;-0.54;100.00;99173.31;4200618;28;20308;-75
2022/11/23 06:05:25;;;;;;;71.77;22.03;;;;;;;-0.59;100.00;99178.84;4220666;28;20775;-72
2022/11/23 06:07:52;;;;;;;70.47;23.23;;;;;;;-0.71;100.00;99177.91;4206411;28;21680;-74
2022/11/23 06:10:21;;;;;;;62.43;21.63;;;;;;;-0.75;100.00;99188.69;4206211;28;22376;-74
2022/11/23 06:12:48;;;;;;;66.73;21.60;;;;;;;-0.64;100.00;99176.56;4232785;28;20308;-75
2022/11/23 06:15:17;;;;;;;64.20;22.20;;;;;;;-0.70;100.00;99173.56;4198854;28;21214;-72
2022/11/23 06:17:43;;;;;;;63.03;20.73;;;;;;;-0.75;100.00;99173.00;4207948;28;20239;-73
2022/11/23 06:20:10;;;;;;;62.27;20.30;;;;;;;-0.76;100.00;99176.56;4212064;28;21133;-76
2022/11/23 06:22:36;;;;;;;60.37;20.47;;;;;;;-0.75;100.00;99173.88;4213966;28;20326;-70
2022/11/23 06:25:03;;;;;;;58.87;20.37;;;;;;;-0.74;100.00;99180.75;4201686;28;20414;-73
2022/11/23 06:27:30;;;;;;;69.73;21.13;;;;;;;-0.66;100.00;99182.84;4210279;28;21233;-72
2022/11/23 06:29:56;;;;;;;66.70;22.67;;;;;;;-0.67;100.00;99186.41;4224517;28;20240;-70
2022/11/23 06:32:23;;;;;;;63.97;20.47;;;;;;;-0.58;100.00;99185.78;4221464;28;21593;-73
2022/11/23 06:34:50;;;;;;;61.73;22.13;;;;;;;-0.58;100.00;99185.78;4259676;28;20847;-73
2022/11/23 06:37:16;;;;;;;61.23;20.07;;;;;;;-0.64;100.00;99191.41;4204906;28;20260;-75
2022/11/23 06:39:43;;;;;;;66.03;21.57;;;;;;;-0.71;100.00;99177.09;4281404;28;20234;-68
2022/11/23 06:42:11;;;;;;;59.90;19.97;;;;;;;-0.74;100.00;99192.97;4249758;28;20243;-70
2022/11/23 06:44:58;;;;;;;58.03;19.97;;;;;;;-0.77;100.00;99190.56;4215607;28;20405;-74
2022/11/23 06:47:24;;;;;;;58.17;20.17;;;;;;;-0.72;100.00;99188.50;4232201;28;20268;-70
2022/11/23 06:49:52;;;;;;;63.70;21.30;;;;;;;-0.79;100.00;99187.25;4220640;28;20291;-71
2022/11/23 06:52:18;;;;;;;62.53;20.53;;;;;;;-0.79;100.00;99184.63;4226267;28;20233;-71
2022/11/23 06:54:45;;;;;;;60.67;20.73;;;;;;;-0.75;100.00;99191.28;4210842;28;20496;-74
2022/11/23 06:57:12;;;;;;;57.13;20.63;;;;;;;-0.59;100.00;99201.53;4230294;28;20307;-72
2022/11/23 06:59:38;;;;;;;64.27;21.07;;;;;;;-0.64;100.00;99200.06;4232588;28;20295;-71
2022/11/23 07:02:11;;;;;;;61.83;20.30;;;;;;;-0.68;100.00;99203.00;4225888;28;21825;-74
2022/11/23 07:04:37;;;;;;;56.97;19.90;;;;;;;-0.56;100.00;99209.16;4256628;28;25319;-72
2022/11/23 07:07:06;;;;;;;54.13;18.30;;;;;;;-0.68;100.00;99213.44;4209345;28;20490;-74
2022/11/23 07:09:37;;;;;;;52.80;19.43;;;;;;;-0.69;100.00;99219.63;4226390;28;21210;-72
2022/11/23 07:12:04;;;;;;;53.97;19.17;;;;;;;-0.78;100.00;99225.47;4219593;28;20561;-72
2022/11/23 07:14:30;;;;;;;56.10;19.20;;;;;;;-0.81;100.00;99228.28;4235406;28;20451;-67
2022/11/23 07:16:57;;;;;;;58.03;20.90;;;;;;;-0.85;100.00;99225.03;4233439;28;20233;-74
2022/11/23 07:19:23;;;;;;;58.90;20.60;;;;;;;-0.83;100.00;99219.72;4216437;28;20903;-69
2022/11/23 07:21:50;;;;;;;54.73;18.67;;;;;;;-0.82;100.00;99214.41;4238058;28;20335;-72
2022/11/23 07:24:17;;;;;;;58.33;20.00;;;;;;;-0.75;100.00;99215.66;4201791;28;20282;-72
2022/11/23 07:26:43;;;;;;;64.40;19.97;;;;;;;-0.71;100.00;99211.06;4213796;28;22353;-71
2022/11/23 07:29:10;;;;;;;64.33;20.30;;;;;;;-0.74;100.00;99213.88;4231870;28;20487;-70
2022/11/23 07:31:37;;;;;;;56.67;19.93;;;;;;;-0.87;100.00;99209.47;4205424;28;23028;-71
2022/11/23 07:34:04;;;;;;;58.23;19.97;;;;;;;-0.81;100.00;99218.69;4212627;28;20271;-71
2022/11/23 07:36:30;;;;;;;62.10;20.50;;;;;;;-0.74;100.00;99221.72;4218664;28;20235;-71
2022/11/23 07:38:57;;;;;;;57.83;20.80;;;;;;;-0.64;100.00;99222.75;4216156;28;20254;-70
2022/11/23 07:41:26;;;;;;;60.23;19.03;;;;;;;-0.55;100.00;99216.91;4215356;28;20236;-70
2022/11/23 07:43:53;;;;;;;62.53;20.13;;;;;;;-0.65;100.00;99216.69;4223510;28;21215;-70
2022/11/23 07:46:20;;;;;;;62.17;20.87;;;;;;;-0.55;100.00;99218.69;4221477;28;21038;-71
2022/11/23 07:48:46;;;;;;;55.73;18.43;;;;;;;-0.58;100.00;99222.34;4205595;28;20241;-72
2022/11/23 07:51:15;;;;;;;61.40;20.27;;;;;;;-0.50;100.00;99222.66;4213192;28;20235;-71
2022/11/23 07:53:41;;;;;;;65.73;21.40;;;;;;;-0.54;100.00;99213.38;4222947;28;20372;-70
2022/11/23 07:56:08;;;;;;;57.80;19.33;;;;;;;-0.67;100.00;99213.34;4219134;28;20240;-70
2022/11/23 07:58:34;;;;;;;55.80;19.77;;;;;;;-0.68;100.00;99221.28;4211281;28;20255;-70
2022/11/23 08:01:01;;;;;;;58.80;20.83;;;;;;;-0.73;100.00;99224.19;4228990;28;20305;-75
2022/11/23 08:03:28;;;;;;;54.03;20.33;;;;;;;-0.77;100.00;99211.44;4214815;28;20705;-72
2022/11/23 08:05:56;;;;;;;53.67;19.80;;;;;;;-0.79;100.00;99219.41;4236843;28;20266;-72
2022/11/23 08:08:22;;;;;;;51.50;19.37;;;;;;;-0.83;100.00;99223.16;4210872;28;20307;-72
2022/11/23 08:10:49;;;;;;;56.97;20.23;;;;;;;-0.89;100.00;99216.59;4216300;28;20235;-70
2022/11/23 08:13:20;;;;;;;56.93;19.63;;;;;;;-0.96;100.00;99227.50;4212018;28;20229;-71
2022/11/23 08:15:47;;;;;;;53.13;20.50;;;;;;;-0.88;100.00;99225.25;4212578;28;20237;-73
2022/11/23 08:18:20;;;;;;;61.27;20.50;;;;;;;-0.91;100.00;99231.50;4212836;28;20299;-70
2022/11/23 08:20:47;;;;;;;63.03;19.83;;;;;;;-0.82;100.00;99219.63;4229670;28;20260;-70
2022/11/23 08:23:14;;;;;;;56.93;19.63;;;;;;;-0.91;100.00;99230.69;4234948;28;21362;-71
2022/11/23 08:25:40;;;;;;;55.33;20.27;;;;;;;-0.86;100.00;99237.25;4217109;28;20237;-70
2022/11/23 08:28:07;;;;;;;57.20;19.30;;;;;;;-0.79;100.00;99235.09;4211794;28;20235;-74
2022/11/23 08:30:34;;;;;;;59.83;20.63;;;;;;;-0.97;100.00;99237.13;4219850;28;20254;-73
2022/11/23 08:33:05;;;;;;;56.50;19.37;;;;;;;-1.08;100.00;99237.00;4215154;28;20348;-72
2022/11/23 08:35:39;;;;;;;53.13;19.03;;;;;;;-1.09;100.00;99233.56;4212527;28;24198;-72
2022/11/23 08:38:08;;;;;;;49.17;18.77;;;;;;;-1.17;100.00;99234.97;4207348;28;20232;-75
2022/11/23 08:40:36;;;;;;;62.13;21.37;;;;;;;-1.14;100.00;99232.19;4221198;28;20228;-72
2022/11/23 08:43:03;;;;;;;55.33;20.33;;;;;;;-1.01;100.00;99238.25;4219384;28;20312;-71
2022/11/23 08:45:29;;;;;;;56.17;19.87;;;;;;;-0.99;100.00;99231.16;4222321;28;21711;-73
2022/11/23 08:48:00;;;;;;;53.90;19.50;;;;;;;-1.00;100.00;99226.91;4217781;28;20231;-73
2022/11/23 08:50:33;;;;;;;54.90;18.90;;;;;;;-1.06;100.00;99240.34;4217354;28;20227;-73
2022/11/23 08:53:00;;;;;;;59.23;20.60;;;;;;;-1.07;100.00;99239.50;4230269;28;20295;-74
2022/11/23 08:55:28;;;;;;;60.37;20.60;;;;;;;-1.04;100.00;99235.88;4210704;28;20472;-72
2022/11/23 08:57:57;;;;;;;55.53;20.37;;;;;;;-1.07;100.00;99236.91;4228302;28;24287;-73
2022/11/23 09:00:25;;;;;;;51.10;18.80;;;;;;;-1.14;100.00;99237.41;4227933;28;20233;-72
2022/11/23 09:02:52;;;;;;;51.33;18.83;;;;;;;-1.04;100.00;99242.88;4212041;28;21330;-71
2022/11/23 09:05:19;;;;;;;62.40;19.70;;;;;;;-0.97;100.00;99234.53;4217021;28;21222;-74
2022/11/23 09:07:45;;;;;;;52.03;19.63;;;;;;;-0.96;100.00;99232.72;4216210;28;20243;-70
2022/11/23 09:10:12;;;;;;;60.13;20.77;;;;;;;-0.93;100.00;99233.38;4212382;28;22269;-69
2022/11/23 09:12:44;;;;;;;55.33;20.33;;;;;;;-0.93;100.00;99233.38;4233072;28;20348;-70
2022/11/23 09:15:11;;;;;;;59.60;20.83;;;;;;;-0.90;100.00;99237.56;4216896;28;21470;-71
2022/11/23 09:17:37;;;;;;;56.20;19.50;;;;;;;-0.88;100.00;99235.69;4208125;28;20604;-72
2022/11/23 09:20:05;;;;;;;58.83;22.23;;;;;;;-0.91;100.00;99241.13;4202535;28;20294;-67
2022/11/23 09:22:31;;;;;;;57.47;20.83;;;;;;;-0.91;100.00;99236.72;4216912;28;20251;-69
2022/11/23 09:24:58;;;;;;;53.03;19.67;;;;;;;-0.96;100.00;99236.22;4212710;28;20237;-67
2022/11/23 09:27:24;;;;;;;63.10;19.77;;;;;;;-0.87;100.00;99239.97;4207277;28;20666;-74
2022/11/23 09:29:51;;;;;;;55.43;21.03;;;;;;;-0.85;100.00;99238.91;4217385;28;20388;-77
2022/11/23 09:32:18;;;;;;;57.33;20.20;;;;;;;-0.87;100.00;99237.34;4216088;28;20231;-70
2022/11/23 09:34:44;;;;;;;60.17;20.63;;;;;;;-0.93;100.00;99237.78;4205339;28;25690;-68
2022/11/23 09:37:12;;;;;;;57.73;20.63;;;;;;;-0.95;100.00;99237.03;4209324;28;21277;-69
2022/11/23 09:39:38;;;;;;;63.00;22.10;;;;;;;-0.88;100.00;99241.75;4214643;28;20298;-70
2022/11/23 09:42:18;;;;;;;63.47;24.53;;;;;;;-0.88;100.00;99238.31;4208407;28;23050;-71
2022/11/23 09:45:08;;;;;;;61.53;23.63;;;;;;;-0.73;100.00;99241.66;4210136;28;20271;-71
2022/11/23 09:47:51;;;;;;;63.87;22.27;;;;;;;-0.72;100.00;99236.34;4210760;28;20245;-73
2022/11/23 09:50:26;;;;;;;58.83;21.70;;;;;;;-0.69;100.00;99230.91;4209739;28;23704;-67
2022/11/23 09:52:53;;;;;;;57.80;20.80;;;;;;;-0.65;100.00;99228.94;4207166;28;21230;-69
2022/11/23 09:55:33;;;;;;;47.80;18.47;;;;;;;-0.75;100.00;99235.69;4214953;28;21771;-71
2022/11/23 09:58:03;;;;;;;49.63;18.90;;;;;;;-0.64;100.00;99228.81;4217247;28;20471;-67
2022/11/23 10:00:36;;;;;;;48.23;17.63;;;;;;;-0.70;100.00;99220.56;4214795;28;20405;-69
2022/11/23 10:03:03;;;;;;;43.60;17.83;;;;;;;-0.58;100.00;99213.69;4220122;28;20418;-69
2022/11/23 10:05:32;;;;;;;48.63;18.47;;;;;;;-0.67;100.00;99217.75;4212298;28;21553;-73
2022/11/23 10:08:07;;;;;;;47.13;19.10;;;;;;;-0.59;100.00;99215.44;4210687;28;20347;-67
2022/11/23 10:10:40;;;;;;;51.60;18.53;;;;;;;-0.61;100.00;99204.25;4216190;28;23026;-64
2022/11/23 10:13:22;;;;;;;51.40;20.27;;;;;;;-0.62;100.00;99210.44;4208183;28;20737;-70
2022/11/23 10:15:53;;;;;;;52.87;20.00;;;;;;;-0.53;100.00;99215.03;4221434;28;20240;-69
2022/11/23 10:18:30;;;;;;;50.77;19.40;;;;;;;-0.35;100.00;99219.91;4222172;28;20433;-73
2022/11/23 10:21:12;;;;;;;53.93;21.17;;;;;;;-0.48;100.00;99220.78;4202699;28;21673;-72
2022/11/23 10:23:54;;;;;;;50.90;20.47;;;;;;;-0.54;100.00;99218.59;4210198;28;20999;-70
2022/11/23 10:26:28;;;;;;;56.97;20.90;;;;;;;-0.47;100.00;99212.00;4213387;28;22700;-71
2022/11/23 10:28:55;;;;;;;61.63;22.50;;;;;;;-0.36;100.00;99220.88;4210985;28;22365;-71
2022/11/23 10:31:24;;;;;;;52.67;21.37;;;;;;;-0.37;100.00;99220.03;4213633;28;20228;-69
2022/11/23 10:34:08;;;;;;;52.97;21.23;;;;;;;-0.41;100.00;99226.41;4228378;28;21868;-69
2022/11/23 10:36:36;;;;;;;47.50;19.40;;;;;;;-0.43;100.00;99218.66;4220836;28;22136;-70
2022/11/23 10:39:13;;;;;;;50.40;20.63;;;;;;;-0.49;100.00;99215.66;4208345;28;20231;-70
2022/11/23 10:41:39;;;;;;;52.27;22.27;;;;;;;-0.44;100.00;99208.34;4232993;28;25383;-70
2022/11/23 10:44:31;;;;;;;57.13;20.87;;;;;;;-0.47;100.00;99212.00;4202383;28;20235;-51
2022/11/23 10:46:59;;;;;;;50.33;20.27;;;;;;;-0.38;100.00;99215.75;4217799;28;22515;-70
2022/11/23 10:49:29;;;;;;;50.70;20.77;;;;;;;-0.43;100.00;99200.38;4215459;28;20254;-69
2022/11/23 10:52:42;;;;;;;49.10;19.50;;;;;;;-0.31;100.00;99188.25;4211447;28;20245;-68
2022/11/23 10:55:09;;;;;;;47.03;19.70;;;;;;;-0.48;100.00;99181.56;4219109;28;21673;-68
2022/11/23 10:57:43;;;;;;;45.87;19.93;;;;;;;-0.54;100.00;99191.59;4212685;28;20418;-69
2022/11/23 11:00:13;;;;;;;52.80;18.57;;;;;;;-0.54;100.00;99192.47;4216786;28;20235;-69
2022/11/23 11:02:44;;;;;;;50.07;20.70;;;;;;;-0.50;100.00;99195.69;4213986;28;21645;-67
2022/11/23 11:05:30;;;;;;;53.53;19.37;;;;;;;-0.50;100.00;99188.69;4233889;28;20333;-68
2022/11/23 11:08:19;;;;;;;57.87;20.97;;;;;;;-0.35;100.00;99178.97;4216676;28;23137;-71
2022/11/23 11:10:58;;;;;;;53.60;20.47;;;;;;;-0.41;100.00;99178.53;4208858;28;20233;-67
2022/11/23 11:13:36;;;;;;;48.17;19.20;;;;;;;-0.49;100.00;99179.09;4199194;28;20236;-71
2022/11/23 11:16:05;;;;;;;50.47;19.17;;;;;;;-0.37;100.00;99177.41;4221315;28;20242;-69